»·PEaware :: N1SC KPRC-KINW

N1SC :: KPRC-KINW

FLIGHT INFORMATION

Flight Status: Arrived
Operator: Privately registered:
United States
More flights under this callsign
Pilot: Anonymous 10181 (10181)
Aircraft: BEECH AIRCRAFT DUCHESS
(BE76)
More flights by this aircraft type
Origin: KPRC Love
United States
Destination: KINW Winslow-Lindbergh Regl
United States
More flights between these airports :: More routes between these airports
Route: WNSKI2 JUWSO V12 INW
File this flight plan on PilotEdge
Remarks: Happy Thursday! <3
Altitude:
(Current/Filed)
11,000ft
Speed:
(Current/Filed)
160kts
Departed: 20-Jul-23 05:36 PM
Arrived: 20-Jul-23 06:28 PM
Distance/Time
Traveled:
87nm/0:52
Distance/Time
To Go:
Arrived

Flight Plot

Page will automatically refresh every two minutes.

Flight plan parsing failed; only flown route is shown


Map Options




Map Legend


Flown Route
Filed Route
Departure Airport
Arrival Airport
Navaid (VOR, NDB)
Fix

Horizontal Profiles

Position Reports

Time Latitude Longitude Heading Altitude Ground
Speed
20-Jul-23 17:21 34.654452 -112.421893 151 4991ft 0kts
20-Jul-23 17:22 34.654452 -112.421893 151 4991ft 0kts
20-Jul-23 17:23 34.654452 -112.421893 151 4991ft 0kts
20-Jul-23 17:24 34.654452 -112.421893 151 4991ft 0kts
20-Jul-23 17:25 34.654452 -112.421893 151 4991ft 0kts
20-Jul-23 17:26 34.654452 -112.421893 151 4991ft 0kts
20-Jul-23 17:27 34.654452 -112.421893 151 4991ft 0kts
20-Jul-23 17:28 34.654452 -112.421893 151 4991ft 0kts
20-Jul-23 17:29 34.654452 -112.421893 151 4991ft 0kts
20-Jul-23 17:30 34.654449 -112.421891 151 4991ft 0kts
20-Jul-23 17:31 34.656063 -112.419265 42 4981ft 17kts
20-Jul-23 17:32 34.660446 -112.414627 40 4959ft 22kts
20-Jul-23 17:33 34.661785 -112.413002 98 4952ft 0kts
20-Jul-23 17:34 34.661785 -112.412999 99 4952ft 0kts
20-Jul-23 17:35 34.657378 -112.416426 224 4989ft 86kts
20-Jul-23 17:36 34.637789 -112.436670 204 6200ft 100kts
20-Jul-23 17:37 34.636644 -112.410327 47 7414ft 124kts
20-Jul-23 17:38 34.628270 -112.371693 136 8353ft 137kts
20-Jul-23 17:40 34.602813 -112.337023 137 9345ft 138kts
20-Jul-23 17:41 34.576549 -112.302147 128 10270ft 141kts
20-Jul-23 17:42 34.552902 -112.263522 101 11086ft 148kts
20-Jul-23 17:43 34.572641 -112.224831 30 11778ft 150kts
20-Jul-23 17:44 34.612062 -112.199479 22 11662ft 169kts
20-Jul-23 17:45 34.655778 -112.182531 7 11672ft 161kts
20-Jul-23 17:46 34.700360 -112.177088 357 11689ft 158kts
20-Jul-23 17:47 34.744388 -112.181286 347 11685ft 158kts
20-Jul-23 17:48 34.774728 -112.150146 73 11683ft 168kts
20-Jul-23 17:49 34.787217 -112.094261 73 11701ft 171kts
20-Jul-23 17:50 34.799385 -112.038121 72 11684ft 170kts
20-Jul-23 17:51 34.811470 -111.982311 73 11699ft 171kts
20-Jul-23 17:52 34.823613 -111.926072 72 11750ft 171kts
20-Jul-23 17:53 34.835780 -111.869562 72 11752ft 171kts
20-Jul-23 17:54 34.847984 -111.812774 73 11753ft 172kts
20-Jul-23 17:55 34.860212 -111.755721 72 11738ft 172kts
20-Jul-23 17:56 34.872236 -111.699482 72 11744ft 172kts
20-Jul-23 17:57 34.884309 -111.642896 72 11751ft 172kts
20-Jul-23 17:58 34.896284 -111.586592 72 11741ft 171kts
20-Jul-23 17:59 34.908179 -111.530555 72 11726ft 169kts
20-Jul-23 18:00 34.920045 -111.474532 72 11742ft 170kts
20-Jul-23 18:01 34.931888 -111.418459 72 11732ft 171kts
20-Jul-23 18:02 34.943686 -111.362434 72 11739ft 171kts
20-Jul-23 18:03 34.955567 -111.305933 73 11743ft 172kts
20-Jul-23 18:04 34.967323 -111.249839 72 11746ft 171kts
20-Jul-23 18:05 34.979198 -111.193056 73 11738ft 171kts
20-Jul-23 18:05 34.988958 -111.146252 72 11740ft 170kts
20-Jul-23 18:07 35.002597 -111.080703 73 11728ft 170kts
20-Jul-23 18:08 34.994384 -111.021703 100 11169ft 178kts
20-Jul-23 18:09 34.983747 -110.961890 100 10586ft 178kts
20-Jul-23 18:10 34.974091 -110.906372 100 10626ft 164kts
20-Jul-23 18:10 34.966026 -110.860496 100 10598ft 165kts
20-Jul-23 18:11 34.940494 -110.817335 177 10592ft 160kts
20-Jul-23 18:13 34.916387 -110.854511 298 10451ft 143kts
20-Jul-23 18:14 34.921734 -110.902110 293 9885ft 140kts
20-Jul-23 18:14 34.940258 -110.934468 310 9437ft 140kts
20-Jul-23 18:15 34.970855 -110.965365 323 8906ft 143kts
20-Jul-23 18:16 35.006507 -110.986593 337 8493ft 135kts
20-Jul-23 18:17 35.040162 -110.996300 347 8500ft 118kts
20-Jul-23 18:19 35.078354 -110.997109 359 8516ft 117kts
20-Jul-23 18:19 35.105506 -110.990976 9 8512ft 119kts
20-Jul-23 18:20 35.115400 -110.958215 113 7963ft 133kts
20-Jul-23 18:21 35.101743 -110.916042 113 7291ft 130kts
20-Jul-23 18:22 35.088103 -110.874925 113 6600ft 129kts
20-Jul-23 18:23 35.075227 -110.836109 114 6257ft 109kts
20-Jul-23 18:24 35.063470 -110.800595 111 6283ft 124kts
20-Jul-23 18:25 35.047480 -110.765757 124 5800ft 109kts
20-Jul-23 18:26 35.033610 -110.737159 123 5166ft 96kts
20-Jul-23 18:27 35.023231 -110.716418 258 4886ft 9kts
20-Jul-23 18:28 35.022386 -110.716413 0 4885ft 0kts

Navigation Log

Ident Type
Flight plan parsing failed, navigation log unavailable